Time;durP1;ratioP1;P1;durP2;ratioP2;P2;SDS_P1;SDS_P2;PMS_P1;PMS_P2;Temp;Humidity;BMP_temperature;BMP_pressure;BME280_temperature;BME280_humidity;BME280_pressure;Samples;Min_cycle;Max_cycle;Signal;HPM_P1;HPM_P2
2023/07/23 00:00:11;;;;;;;5.90;4.67;;;10.60;99.90;;;;;;8217520;28;20267;-66
2023/07/23 00:04:13;;;;;;;6.23;4.90;;;10.80;99.90;;;;;;8203633;28;20227;-64
2023/07/23 00:08:14;;;;;;;7.17;4.73;;;11.00;99.90;;;;;;8221747;28;20184;-64
2023/07/23 00:12:15;;;;;;;6.13;4.17;;;11.30;99.90;;;;;;8196703;28;20185;-65
2023/07/23 00:16:16;;;;;;;7.53;4.53;;;11.50;99.90;;;;;;8207423;28;20191;-64
2023/07/23 00:20:16;;;;;;;5.33;4.30;;;11.70;60.20;;;;;;8202130;28;20185;-64
2023/07/23 00:24:21;;;;;;;6.63;4.50;;;11.90;13.70;;;;;;8201578;28;20190;-63
2023/07/23 00:28:22;;;;;;;7.00;4.67;;;12.00;1.00;;;;;;8217367;28;20195;-65
2023/07/23 00:32:32;;;;;;;6.23;4.73;;;12.10;1.00;;;;;;8200187;28;20193;-65
2023/07/23 00:36:36;;;;;;;6.80;4.87;;;12.10;1.00;;;;;;8201691;28;20228;-64
2023/07/23 00:40:38;;;;;;;4.90;4.40;;;12.10;1.00;;;;;;8199859;28;20215;-65
2023/07/23 00:44:39;;;;;;;6.53;4.73;;;12.00;1.00;;;;;;8205997;28;20290;-65
2023/07/23 00:48:40;;;;;;;4.97;4.43;;;12.00;12.00;;;;;;8206100;28;20259;-63
2023/07/23 00:52:42;;;;;;;6.67;4.83;;;12.10;10.00;;;;;;8202409;28;20197;-63
2023/07/23 00:56:44;;;;;;;4.33;3.93;;;12.00;1.00;;;;;;8201254;28;20201;-64
2023/07/23 01:00:45;;;;;;;4.00;3.47;;;12.00;1.00;;;;;;8201108;28;20225;-65
2023/07/23 01:04:46;;;;;;;6.10;4.60;;;11.90;1.00;;;;;;8201460;28;20258;-64
2023/07/23 01:08:51;;;;;;;4.40;3.90;;;11.80;1.00;;;;;;8202388;28;20348;-64
2023/07/23 01:12:51;;;;;;;4.60;3.73;;;11.70;1.00;;;;;;8201795;28;20197;-64
2023/07/23 01:17:00;;;;;;;5.47;4.03;;;11.60;1.00;;;;;;8199499;28;20248;-64
2023/07/23 01:21:01;;;;;;;5.67;4.20;;;11.50;1.00;;;;;;8198870;28;20303;-64
2023/07/23 01:25:04;;;;;;;4.97;4.47;;;11.30;6.60;;;;;;8213173;28;20227;-62
2023/07/23 01:29:05;;;;;;;5.70;4.80;;;11.20;27.30;;;;;;8199604;28;20213;-63
2023/07/23 01:33:09;;;;;;;6.07;4.50;;;11.20;56.50;;;;;;8202474;28;20196;-63
2023/07/23 01:37:10;;;;;;;6.90;4.67;;;11.00;90.90;;;;;;8198800;28;20197;-63
2023/07/23 01:41:11;;;;;;;5.60;4.57;;;11.00;99.90;;;;;;8214765;28;20288;-63
2023/07/23 01:45:13;;;;;;;4.77;4.20;;;10.90;99.90;;;;;;8201356;28;20311;-63
2023/07/23 01:49:14;;;;;;;5.70;4.63;;;10.90;99.90;;;;;;8196370;28;20196;-64
2023/07/23 01:53:18;;;;;;;5.63;4.80;;;10.90;99.90;;;;;;8195597;28;20196;-62
2023/07/23 01:57:19;;;;;;;5.93;4.43;;;10.90;99.90;;;;;;8203745;28;20192;-63
2023/07/23 02:01:21;;;;;;;8.47;4.63;;;10.90;99.90;;;;;;8208621;28;20223;-63
2023/07/23 02:05:22;;;;;;;6.23;5.13;;;11.00;99.90;;;;;;8202378;28;20230;-63
2023/07/23 02:09:23;;;;;;;5.70;4.50;;;11.10;99.90;;;;;;8202754;28;20235;-64
2023/07/23 02:13:24;;;;;;;6.97;4.50;;;11.10;99.90;;;;;;8219719;28;20223;-64
2023/07/23 02:17:25;;;;;;;5.40;4.67;;;11.10;99.90;;;;;;8221849;28;20202;-64
2023/07/23 02:21:26;;;;;;;6.23;4.60;;;11.10;99.90;;;;;;8222521;28;20243;-64
2023/07/23 02:25:27;;;;;;;7.27;5.03;;;11.10;99.90;;;;;;8205061;28;20189;-64
2023/07/23 02:29:28;;;;;;;5.83;4.97;;;11.10;99.90;;;;;;8206862;28;20190;-64
2023/07/23 02:33:28;;;;;;;7.03;5.03;;;11.00;99.90;;;;;;8202972;28;20238;-64
2023/07/23 02:37:29;;;;;;;6.27;5.13;;;11.00;99.90;;;;;;8203328;28;20288;-64
2023/07/23 02:41:30;;;;;;;5.83;3.67;;;11.10;99.90;;;;;;8203701;28;20352;-65
2023/07/23 02:45:34;;;;;;;5.27;3.27;;;11.30;99.90;;;;;;8208519;28;20218;-64
2023/07/23 02:49:35;;;;;;;6.03;3.60;;;11.60;72.90;;;;;;8225922;28;20195;-65
2023/07/23 02:53:36;;;;;;;4.83;3.50;;;11.90;5.80;;;;;;8209538;28;20197;-65
2023/07/23 02:57:36;;;;;;;3.57;3.27;;;12.20;1.00;;;;;;8226471;28;20209;-65
2023/07/23 03:01:37;;;;;;;5.03;3.87;;;12.40;1.00;;;;;;8212353;28;20243;-66
2023/07/23 03:05:42;;;;;;;3.80;2.63;;;12.60;1.00;;;;;;8208916;28;20216;-65
2023/07/23 03:09:49;;;;;;;5.53;3.43;;;12.80;1.00;;;;;;8225818;28;20328;-63
2023/07/23 03:13:52;;;;;;;5.40;3.30;;;13.00;1.00;;;;;;8210055;28;20204;-65
2023/07/23 03:17:53;;;;;;;3.70;3.40;;;13.30;1.00;;;;;;8220822;28;20204;-66
2023/07/23 03:21:57;;;;;;;4.87;3.63;;;13.50;1.00;;;;;;8207976;28;20216;-67
2023/07/23 03:25:58;;;;;;;3.80;2.70;;;13.80;1.00;;;;;;8207538;28;20247;-63
2023/07/23 03:29:59;;;;;;;4.03;3.27;;;14.00;1.00;;;;;;8213289;28;20192;-63
2023/07/23 03:34:00;;;;;;;3.67;2.63;;;14.20;1.00;;;;;;8206777;28;20199;-64
2023/07/23 03:38:01;;;;;;;3.27;2.97;;;14.40;1.00;;;;;;8210581;28;20192;-64
2023/07/23 03:42:02;;;;;;;3.80;3.40;;;14.60;99.90;;;;;;8206570;28;20234;-65
2023/07/23 03:46:03;;;;;;;3.93;3.30;;;14.80;99.90;;;;;;8209027;28;20197;-66
2023/07/23 03:50:04;;;;;;;3.30;2.70;;;14.90;99.90;;;;;;8210408;28;20208;-64
2023/07/23 03:54:05;;;;;;;4.00;2.97;;;15.10;99.90;;;;;;8207765;28;20202;-64
2023/07/23 03:58:09;;;;;;;3.73;2.83;;;15.30;99.90;;;;;;8205875;28;20224;-62
2023/07/23 04:02:15;;;;;;;4.13;3.00;;;15.50;99.90;;;;;;8203426;28;20223;-64
2023/07/23 04:06:21;;;;;;;3.57;2.80;;;15.70;99.90;;;;;;8203475;28;20211;-67
2023/07/23 04:10:22;;;;;;;5.17;3.30;;;15.90;99.90;;;;;;8214269;28;20243;-65
2023/07/23 04:14:26;;;;;;;3.93;2.90;;;16.00;99.90;;;;;;8205818;28;20189;-62
2023/07/23 04:18:51;;;;;;;5.57;2.97;;;16.10;99.90;;;;;;8212058;28;20254;-63
2023/07/23 04:22:52;;;;;;;4.50;3.17;;;16.20;99.90;;;;;;8201419;28;20216;-63
2023/07/23 04:26:54;;;;;;;4.30;2.80;;;16.30;99.90;;;;;;8200163;28;20303;-63
2023/07/23 04:30:55;;;;;;;3.47;2.87;;;16.40;99.90;;;;;;8203560;28;20216;-64
2023/07/23 04:35:02;;;;;;;3.10;2.80;;;16.50;99.90;;;;;;8215799;28;20315;-65
2023/07/23 04:39:03;;;;;;;3.43;2.90;;;16.60;99.90;;;;;;8203407;28;20208;-64
2023/07/23 04:43:04;;;;;;;3.20;2.77;;;16.70;99.90;;;;;;8197621;28;20232;-65
2023/07/23 04:47:05;;;;;;;2.63;2.30;;;16.90;99.90;;;;;;8198741;28;20192;-65
2023/07/23 04:51:08;;;;;;;3.10;2.57;;;17.00;99.90;;;;;;8202488;28;20315;-67
2023/07/23 04:55:09;;;;;;;2.80;2.50;;;17.20;99.90;;;;;;8201207;28;20204;-69
2023/07/23 04:59:10;;;;;;;4.23;3.00;;;17.20;99.90;;;;;;8205688;28;20200;-66
2023/07/23 05:03:11;;;;;;;3.10;2.77;;;17.30;99.90;;;;;;8202878;28;20212;-66
2023/07/23 05:07:13;;;;;;;4.07;3.07;;;17.40;99.90;;;;;;8201181;28;20204;-66
2023/07/23 05:11:13;;;;;;;3.23;2.23;;;17.60;99.90;;;;;;8200436;28;20192;-67
2023/07/23 05:15:16;;;;;;;3.13;2.60;;;17.70;99.90;;;;;;8199487;28;20196;-67
2023/07/23 05:19:16;;;;;;;5.43;2.70;;;17.80;99.90;;;;;;8202555;28;20192;-67
2023/07/23 05:23:18;;;;;;;3.60;2.60;;;18.00;99.90;;;;;;8200470;28;20231;-68
2023/07/23 05:27:19;;;;;;;3.40;2.70;;;18.20;99.90;;;;;;8219406;28;20192;-66
2023/07/23 05:31:24;;;;;;;2.57;2.37;;;18.30;99.90;;;;;;8201035;28;20202;-68
2023/07/23 05:35:25;;;;;;;3.17;2.67;;;18.60;99.90;;;;;;8201559;28;20283;-68
2023/07/23 05:39:26;;;;;;;5.00;2.60;;;18.90;99.90;;;;;;8204071;28;20243;-66
2023/07/23 05:43:27;;;;;;;3.40;2.70;;;19.00;99.90;;;;;;8222050;28;20224;-68
2023/07/23 05:47:28;;;;;;;2.73;2.10;;;19.10;99.90;;;;;;8202551;28;20193;-66
2023/07/23 05:51:32;;;;;;;2.63;2.10;;;19.10;99.90;;;;;;8225030;28;20280;-67
2023/07/23 05:55:33;;;;;;;3.07;2.40;;;19.10;99.90;;;;;;8222894;28;20200;-67
2023/07/23 05:59:36;;;;;;;3.30;2.80;;;19.30;99.90;;;;;;8201353;28;20199;-67
2023/07/23 06:03:37;;;;;;;3.00;2.20;;;19.50;99.90;;;;;;8200325;28;20228;-67
2023/07/23 06:07:38;;;;;;;2.70;2.47;;;19.70;99.90;;;;;;8199961;28;20263;-68
2023/07/23 06:11:39;;;;;;;3.83;2.47;;;19.90;99.90;;;;;;8213069;28;20292;-67
2023/07/23 06:15:40;;;;;;;4.17;2.63;;;20.20;99.90;;;;;;8198187;28;20267;-68
2023/07/23 06:19:41;;;;;;;3.30;2.47;;;20.40;99.90;;;;;;8197958;28;20196;-68
2023/07/23 06:23:43;;;;;;;3.47;2.33;;;20.60;99.90;;;;;;8196645;28;20227;-67
2023/07/23 06:27:44;;;;;;;2.40;2.20;;;20.90;99.90;;;;;;8201761;28;20204;-67
2023/07/23 06:31:45;;;;;;;3.93;2.30;;;21.30;99.90;;;;;;8212813;28;20197;-67
2023/07/23 06:35:47;;;;;;;3.10;2.63;;;21.50;99.90;;;;;;8201436;28;20252;-67
2023/07/23 06:39:51;;;;;;;3.07;2.63;;;21.60;99.90;;;;;;8201542;28;20348;-66
2023/07/23 06:43:51;;;;;;;4.33;3.47;;;21.80;99.90;;;;;;8203747;28;20231;-65
2023/07/23 06:47:52;;;;;;;2.20;2.00;;;22.20;99.90;;;;;;8222308;28;20189;-64
2023/07/23 06:52:11;;;;;;;3.20;2.23;;;22.60;99.90;;;;;;8221835;28;20192;-66
2023/07/23 06:56:16;;;;;;;3.13;2.67;;;22.90;99.90;;;;;;8197576;28;20264;-65
2023/07/23 07:00:19;;;;;;;3.30;3.00;;;23.30;99.90;;;;;;8218411;28;20189;-64
2023/07/23 07:04:20;;;;;;;2.93;2.40;;;23.60;99.90;;;;;;8208897;28;20230;-66
2023/07/23 07:08:21;;;;;;;2.60;2.30;;;23.60;99.90;;;;;;8209519;28;20309;-64
2023/07/23 07:12:34;;;;;;;4.20;2.60;;;23.90;99.90;;;;;;8202443;28;20197;-65
2023/07/23 07:16:44;;;;;;;3.03;2.73;;;24.20;99.90;;;;;;8205769;28;20244;-66
2023/07/23 07:20:51;;;;;;;5.17;2.53;;;24.30;99.90;;;;;;8219204;28;20275;-66
2023/07/23 07:24:52;;;;;;;3.43;2.43;;;24.30;99.90;;;;;;8198797;28;20192;-66
2023/07/23 07:28:56;;;;;;;3.70;2.53;;;24.20;99.90;;;;;;8201820;28;20255;-66
2023/07/23 07:32:57;;;;;;;4.00;3.00;;;24.10;99.90;;;;;;8207823;28;20188;-64
2023/07/23 07:36:58;;;;;;;3.33;2.60;;;24.00;99.90;;;;;;8214152;28;20291;-67
2023/07/23 07:41:00;;;;;;;2.20;2.00;;;23.90;99.90;;;;;;8209133;28;20223;-65
2023/07/23 07:45:00;;;;;;;4.97;2.80;;;23.90;99.90;;;;;;8205549;28;20183;-67
2023/07/23 07:49:02;;;;;;;8.43;2.77;;;24.30;99.90;;;;;;8216331;28;20188;-67
2023/07/23 07:53:03;;;;;;;7.40;2.30;;;24.70;99.90;;;;;;8228472;28;20223;-68
2023/07/23 07:57:04;;;;;;;3.70;2.40;;;24.90;99.90;;;;;;8210718;28;20196;-69
2023/07/23 08:01:05;;;;;;;3.60;2.70;;;25.10;99.90;;;;;;8228194;28;20244;-68
2023/07/23 08:05:07;;;;;;;4.10;2.43;;;25.20;99.90;;;;;;8212706;28;20267;-66
2023/07/23 08:09:10;;;;;;;2.57;2.30;;;25.40;99.90;;;;;;8215366;28;20184;-67
2023/07/23 08:13:16;;;;;;;2.97;2.63;;;25.80;99.90;;;;;;8213911;28;20192;-66
2023/07/23 08:17:17;;;;;;;3.60;2.67;;;25.60;99.90;;;;;;8217332;28;20293;-67
2023/07/23 08:21:18;;;;;;;5.43;2.90;;;25.40;99.90;;;;;;8214665;28;20204;-65
2023/07/23 08:25:20;;;;;;;3.70;2.67;;;25.70;99.90;;;;;;8222530;28;20181;-65
2023/07/23 08:29:24;;;;;;;4.63;2.40;;;26.20;99.90;;;;;;8206492;28;20291;-66
2023/07/23 08:33:28;;;;;;;6.07;2.70;;;26.90;99.90;;;;;;8205912;28;20239;-68
2023/07/23 08:37:30;;;;;;;3.22;2.30;;;27.40;99.90;;;;;;8206721;28;20199;-66
2023/07/23 08:41:42;;;;;;;4.43;2.58;;;27.50;99.90;;;;;;8206698;28;20218;-68
2023/07/23 08:45:51;;;;;;;3.90;2.55;;;27.60;99.90;;;;;;8201483;28;20203;-69
2023/07/23 08:49:59;;;;;;;3.20;2.05;;;27.70;99.90;;;;;;8220778;28;20192;-67
2023/07/23 08:54:02;;;;;;;3.20;2.20;;;27.80;99.90;;;;;;8221453;28;20208;-67
2023/07/23 08:58:03;;;;;;;3.13;2.33;;;27.70;99.90;;;;;;8213123;28;20304;-69
2023/07/23 09:02:07;;;;;;;3.83;2.70;;;27.80;99.90;;;;;;8210181;28;20208;-67
2023/07/23 09:06:12;;;;;;;3.13;2.35;;;27.90;99.90;;;;;;8208218;28;20220;-70
2023/07/23 09:10:13;;;;;;;3.67;2.78;;;28.10;99.90;;;;;;8222227;28;20185;-68
2023/07/23 09:14:16;;;;;;;4.68;2.92;;;28.20;99.90;;;;;;8205622;28;20188;-67
2023/07/23 09:18:19;;;;;;;14.70;10.50;;;28.40;99.90;;;;;;8208483;28;20199;-68
2023/07/23 09:22:30;;;;;;;33.80;26.60;;;28.30;99.90;;;;;;8209331;28;20249;-68
2023/07/23 09:26:36;;;;;;;7.72;3.15;;;28.30;99.90;;;;;;8206620;28;20257;-68
2023/07/23 09:30:37;;;;;;;2.92;2.60;;;27.90;99.90;;;;;;8201426;28;20184;-67
2023/07/23 09:34:48;;;;;;;2.67;2.40;;;27.50;99.90;;;;;;8200926;28;20188;-68
2023/07/23 09:38:54;;;;;;;3.10;2.47;;;27.80;99.90;;;;;;8219126;28;20200;-66
2023/07/23 09:42:58;;;;;;;5.25;2.42;;;27.80;99.90;;;;;;8203928;28;20263;-67
2023/07/23 09:46:59;;;;;;;2.83;2.17;;;28.10;99.90;;;;;;8201219;28;20215;-68
2023/07/23 09:51:00;;;;;;;3.85;2.78;;;28.40;99.90;;;;;;8201059;28;20197;-69
2023/07/23 09:55:03;;;;;;;2.63;2.33;;;28.70;99.90;;;;;;8215955;28;20196;-67
2023/07/23 09:59:05;;;;;;;3.50;2.45;;;28.80;99.90;;;;;;8204311;28;20224;-67
2023/07/23 10:03:06;;;;;;;4.55;2.85;;;28.80;99.90;;;;;;8201565;28;20220;-69
2023/07/23 10:07:10;;;;;;;3.47;2.80;;;28.70;99.90;;;;;;8220179;28;20330;-70
2023/07/23 10:11:16;;;;;;;4.53;2.60;;;28.70;99.90;;;;;;8200055;28;20189;-67
2023/07/23 10:15:17;;;;;;;3.75;2.80;;;28.60;99.90;;;;;;8206109;28;20205;-69
2023/07/23 10:19:20;;;;;;;4.22;2.83;;;28.90;99.90;;;;;;8210666;28;20242;-69
2023/07/23 10:23:23;;;;;;;3.60;2.80;;;28.50;99.90;;;;;;8228322;28;20220;-68
2023/07/23 10:27:30;;;;;;;3.83;2.63;;;28.40;99.90;;;;;;8206391;28;20188;-69
2023/07/23 10:31:31;;;;;;;4.63;2.92;;;28.30;99.90;;;;;;8212034;28;20185;-68
2023/07/23 10:35:58;;;;;;;3.50;2.88;;;28.20;99.90;;;;;;8205222;28;20179;-68
2023/07/23 10:40:00;;;;;;;3.85;2.60;;;28.40;99.90;;;;;;8207949;28;20249;-67
2023/07/23 10:44:01;;;;;;;3.05;2.75;;;28.60;99.90;;;;;;8205890;28;20212;-66
2023/07/23 10:48:03;;;;;;;2.90;2.50;;;28.60;99.90;;;;;;8221994;28;20186;-70
2023/07/23 10:52:17;;;;;;;3.50;2.40;;;28.10;99.90;;;;;;8219296;28;20188;-66
2023/07/23 10:56:22;;;;;;;5.50;2.30;;;28.30;99.90;;;;;;8200855;28;20180;-67
2023/07/23 11:00:23;;;;;;;4.15;2.45;;;28.60;99.90;;;;;;8202598;28;20196;-68
2023/07/23 11:04:26;;;;;;;4.47;2.38;;;29.00;99.90;;;;;;8217367;28;20246;-67
2023/07/23 11:08:27;;;;;;;3.53;2.40;;;29.10;99.90;;;;;;8203948;28;20188;-68
2023/07/23 11:12:27;;;;;;;4.15;2.05;;;29.40;99.90;;;;;;8215610;28;20184;-66
2023/07/23 11:16:33;;;;;;;3.25;2.15;;;29.60;99.90;;;;;;8215944;28;20195;-67
2023/07/23 11:20:37;;;;;;;4.82;2.15;;;29.70;99.90;;;;;;8219461;28;20192;-70
2023/07/23 11:24:43;;;;;;;3.90;2.00;;;29.60;99.90;;;;;;8202998;28;20220;-66
2023/07/23 11:28:44;;;;;;;4.88;2.30;;;29.30;99.90;;;;;;8203706;28;20184;-68
2023/07/23 11:32:48;;;;;;;3.50;2.30;;;29.30;99.90;;;;;;8196001;28;20474;-70
2023/07/23 11:36:52;;;;;;;3.60;2.40;;;29.40;99.90;;;;;;8217284;28;20196;-69
2023/07/23 11:40:58;;;;;;;2.80;2.38;;;29.40;99.90;;;;;;8203758;28;20219;-68
2023/07/23 11:45:01;;;;;;;3.30;2.20;;;29.00;99.90;;;;;;8206591;28;20189;-68
2023/07/23 11:49:06;;;;;;;4.22;2.33;;;29.60;99.90;;;;;;8206659;28;20190;-66
2023/07/23 11:53:07;;;;;;;2.90;2.20;;;29.90;99.90;;;;;;8199840;28;20280;-67
2023/07/23 11:57:08;;;;;;;2.67;2.15;;;29.70;99.90;;;;;;8203263;28;20197;-67
2023/07/23 12:01:10;;;;;;;4.57;2.30;;;29.90;99.90;;;;;;8200518;28;20224;-67
2023/07/23 12:05:13;;;;;;;3.03;2.13;;;30.20;99.90;;;;;;8202192;28;20220;-67
2023/07/23 12:09:18;;;;;;;2.80;2.10;;;30.30;99.90;;;;;;8200402;28;20246;-69
2023/07/23 12:13:25;;;;;;;4.32;2.08;;;30.30;99.90;;;;;;8182063;28;20195;-67
2023/07/23 12:17:27;;;;;;;4.88;2.25;;;30.40;99.90;;;;;;8207890;28;20181;-66
2023/07/23 12:21:28;;;;;;;2.65;2.30;;;30.10;99.90;;;;;;8204831;28;20251;-67
2023/07/23 12:25:35;;;;;;;2.20;2.00;;;30.10;99.90;;;;;;8195091;28;20319;-66
2023/07/23 12:29:43;;;;;;;3.78;2.08;;;29.90;99.90;;;;;;8198750;28;20221;-67
2023/07/23 12:33:45;;;;;;;4.05;2.20;;;30.00;99.90;;;;;;8218597;28;20197;-67
2023/07/23 12:37:46;;;;;;;3.85;2.40;;;29.60;99.90;;;;;;8198772;28;20200;-67
2023/07/23 12:41:46;;;;;;;4.82;2.22;;;29.30;99.90;;;;;;8199677;28;20212;-66
2023/07/23 12:45:47;;;;;;;2.88;2.25;;;29.70;99.90;;;;;;8199367;28;20189;-67
2023/07/23 12:49:50;;;;;;;4.07;2.10;;;29.70;99.90;;;;;;8198390;28;20191;-67
2023/07/23 12:53:51;;;;;;;4.50;2.22;;;29.70;99.90;;;;;;8196251;28;20250;-66
2023/07/23 12:57:52;;;;;;;3.22;2.42;;;29.90;99.90;;;;;;8217101;28;20188;-67
2023/07/23 13:01:53;;;;;;;6.90;2.00;;;30.40;99.90;;;;;;8199156;28;20240;-68
2023/07/23 13:05:54;;;;;;;2.33;2.05;;;30.80;99.90;;;;;;8196603;28;20250;-68
2023/07/23 13:09:55;;;;;;;2.97;2.10;;;31.10;99.90;;;;;;8208832;28;20192;-66
2023/07/23 13:13:59;;;;;;;4.15;2.15;;;30.70;99.90;;;;;;8215035;28;20199;-70
2023/07/23 13:18:01;;;;;;;2.60;2.30;;;30.40;99.90;;;;;;8197646;28;20185;-68
2023/07/23 13:22:01;;;;;;;3.40;1.88;;;30.50;99.90;;;;;;8212847;28;20243;-67
2023/07/23 13:26:06;;;;;;;2.72;2.10;;;30.40;99.90;;;;;;8195713;28;20185;-66
2023/07/23 13:30:11;;;;;;;3.17;2.30;;;30.60;99.90;;;;;;8196864;28;20200;-66
2023/07/23 13:34:12;;;;;;;2.45;2.25;;;30.50;99.90;;;;;;8210718;28;20233;-68
2023/07/23 13:38:13;;;;;;;3.42;2.30;;;30.80;99.90;;;;;;8198391;28;20200;-66
2023/07/23 13:42:20;;;;;;;2.33;2.13;;;30.90;99.90;;;;;;8193160;28;20204;-67
2023/07/23 13:46:21;;;;;;;3.35;2.25;;;31.20;99.90;;;;;;8201211;28;20181;-67
2023/07/23 13:50:22;;;;;;;3.35;2.30;;;31.60;99.90;;;;;;8200093;28;20211;-67
2023/07/23 13:54:24;;;;;;;2.63;2.30;;;31.60;99.90;;;;;;8218178;28;20223;-68
2023/07/23 13:58:24;;;;;;;4.15;2.42;;;31.70;99.90;;;;;;8208737;28;20197;-66
2023/07/23 14:02:26;;;;;;;2.90;2.55;;;31.60;99.90;;;;;;8201674;28;20295;-68
2023/07/23 14:06:26;;;;;;;3.63;2.50;;;31.60;99.90;;;;;;8202252;28;20208;-68
2023/07/23 14:10:27;;;;;;;5.78;2.33;;;31.60;99.90;;;;;;8201184;28;20211;-69
2023/07/23 14:14:28;;;;;;;3.92;2.75;;;31.40;99.90;;;;;;8205292;28;20192;-68
2023/07/23 14:18:29;;;;;;;5.70;2.78;;;31.30;99.90;;;;;;8219829;28;20189;-67
2023/07/23 14:22:31;;;;;;;3.60;2.08;;;31.30;99.90;;;;;;8201741;28;20242;-65
2023/07/23 14:26:32;;;;;;;3.35;2.10;;;31.40;99.90;;;;;;8205091;28;20189;-66
2023/07/23 14:30:40;;;;;;;4.05;2.20;;;31.20;99.90;;;;;;8207928;28;20220;-68
2023/07/23 14:34:41;;;;;;;3.05;2.40;;;30.90;99.90;;;;;;8201585;28;20243;-66
2023/07/23 14:38:42;;;;;;;4.13;2.85;;;30.80;99.90;;;;;;8205290;28;20195;-66
2023/07/23 14:42:43;;;;;;;3.03;2.70;;;30.80;99.90;;;;;;8216865;28;20212;-68
2023/07/23 14:46:44;;;;;;;2.75;2.33;;;30.90;99.90;;;;;;8204842;28;20287;-66
2023/07/23 14:50:54;;;;;;;2.53;2.33;;;31.00;99.90;;;;;;8201138;28;20247;-66
2023/07/23 14:54:55;;;;;;;3.50;2.72;;;31.00;99.90;;;;;;8212392;28;20242;-66
2023/07/23 14:58:56;;;;;;;3.47;2.47;;;31.10;99.90;;;;;;8208902;28;20188;-67
2023/07/23 15:03:00;;;;;;;3.80;2.42;;;31.00;99.90;;;;;;8204626;28;20344;-68
2023/07/23 15:07:01;;;;;;;4.82;2.33;;;31.10;99.90;;;;;;8207520;28;20284;-66
2023/07/23 15:11:02;;;;;;;3.70;2.45;;;31.10;99.90;;;;;;8206591;28;20196;-66
2023/07/23 15:15:04;;;;;;;3.08;2.38;;;30.90;99.90;;;;;;8223025;28;20189;-68
2023/07/23 15:19:05;;;;;;;3.25;2.20;;;30.90;99.90;;;;;;8204209;28;20235;-68
2023/07/23 15:23:06;;;;;;;3.00;2.00;;;30.90;99.90;;;;;;8207398;28;20212;-71
2023/07/23 15:27:08;;;;;;;3.47;2.30;;;30.90;99.90;;;;;;8204551;28;20304;-70
2023/07/23 15:31:09;;;;;;;2.35;2.15;;;30.70;99.90;;;;;;8199407;28;20216;-68
2023/07/23 15:35:10;;;;;;;4.10;1.98;;;30.40;99.90;;;;;;8202920;28;20192;-67
2023/07/23 15:39:11;;;;;;;2.55;2.20;;;30.20;99.90;;;;;;8199306;28;20196;-66
2023/07/23 15:43:12;;;;;;;4.53;2.38;;;30.00;99.90;;;;;;8208818;28;20246;-69
2023/07/23 15:47:13;;;;;;;3.22;1.67;;;29.90;99.90;;;;;;8208896;28;20195;-70
2023/07/23 15:51:15;;;;;;;2.75;2.30;;;29.70;99.90;;;;;;8203267;28;20196;-71
2023/07/23 15:55:16;;;;;;;2.72;2.10;;;29.50;99.90;;;;;;8202650;28;20219;-71
2023/07/23 15:59:17;;;;;;;3.35;2.50;;;29.30;99.90;;;;;;8219998;28;20283;-68
2023/07/23 16:03:18;;;;;;;3.33;2.40;;;29.00;99.90;;;;;;8199939;28;20216;-68
2023/07/23 16:07:19;;;;;;;4.00;2.38;;;28.80;99.90;;;;;;8216823;28;20222;-68
2023/07/23 16:11:23;;;;;;;3.60;1.98;;;28.60;99.90;;;;;;8205524;28;20275;-68
2023/07/23 16:15:25;;;;;;;3.42;2.47;;;28.20;99.90;;;;;;8192452;28;20339;-65
2023/07/23 16:19:26;;;;;;;4.43;2.30;;;27.70;99.90;;;;;;8199022;28;20197;-66
2023/07/23 16:23:26;;;;;;;2.72;2.45;;;27.00;99.90;;;;;;8206246;28;20334;-67
2023/07/23 16:27:28;;;;;;;2.50;2.30;;;26.60;99.90;;;;;;8222193;28;20292;-66
2023/07/23 16:31:29;;;;;;;4.77;2.33;;;26.40;99.90;;;;;;8199704;28;20294;-69
2023/07/23 16:35:31;;;;;;;7.70;2.67;;;26.30;99.90;;;;;;8207317;28;20199;-66
2023/07/23 16:39:40;;;;;;;4.45;2.28;;;26.50;99.90;;;;;;8201922;28;20193;-66
2023/07/23 16:43:41;;;;;;;3.40;2.80;;;26.70;99.90;;;;;;8207695;28;20224;-68
2023/07/23 16:47:45;;;;;;;3.15;2.30;;;26.80;99.90;;;;;;8199489;28;20183;-67
2023/07/23 16:51:46;;;;;;;3.78;2.28;;;26.90;99.90;;;;;;8199467;28;20196;-67
2023/07/23 16:55:47;;;;;;;6.18;2.65;;;26.80;99.90;;;;;;8199228;28;20220;-69
2023/07/23 16:59:48;;;;;;;4.40;2.47;;;26.70;99.90;;;;;;8204036;28;20184;-69
2023/07/23 17:03:49;;;;;;;3.58;2.75;;;26.60;99.90;;;;;;8219727;28;20220;-70
2023/07/23 17:08:00;;;;;;;5.30;2.33;;;26.50;99.90;;;;;;8203097;28;20196;-68
2023/07/23 17:12:09;;;;;;;5.70;2.80;;;26.40;99.90;;;;;;8203402;28;20192;-69
2023/07/23 17:16:10;;;;;;;3.38;2.45;;;26.40;99.90;;;;;;8204192;28;20192;-67
2023/07/23 17:20:13;;;;;;;3.88;2.80;;;26.30;99.90;;;;;;8205981;28;20196;-66
2023/07/23 17:24:15;;;;;;;4.72;2.40;;;26.30;99.90;;;;;;8198451;28;20217;-67
2023/07/23 17:28:16;;;;;;;4.53;3.27;;;26.20;99.90;;;;;;8207115;28;20193;-65
2023/07/23 17:32:17;;;;;;;4.57;3.07;;;26.20;99.90;;;;;;8187428;28;20279;-66
2023/07/23 17:36:18;;;;;;;4.63;2.93;;;26.20;99.90;;;;;;8201055;28;20192;-64
2023/07/23 17:40:19;;;;;;;3.40;2.60;;;26.20;99.90;;;;;;8195724;28;20189;-65
2023/07/23 17:44:20;;;;;;;3.90;3.40;;;26.10;99.90;;;;;;8194329;28;20216;-66
2023/07/23 17:48:21;;;;;;;5.50;3.73;;;26.10;99.90;;;;;;8202104;28;20185;-65
2023/07/23 17:52:26;;;;;;;4.20;3.77;;;26.10;99.90;;;;;;8203473;28;20188;-64
2023/07/23 17:56:28;;;;;;;5.17;2.97;;;26.00;99.90;;;;;;8205512;28;20200;-64
2023/07/23 18:00:33;;;;;;;5.50;2.83;;;26.00;99.90;;;;;;8220130;28;20277;-63
2023/07/23 18:04:36;;;;;;;12.50;3.13;;;26.00;99.90;;;;;;8202170;28;20276;-66
2023/07/23 18:08:37;;;;;;;13.10;3.70;;;25.80;99.90;;;;;;8202702;28;20313;-64
2023/07/23 18:12:41;;;;;;;19.80;4.10;;;25.60;99.90;;;;;;8217785;28;20185;-67
2023/07/23 18:16:43;;;;;;;11.87;3.37;;;25.20;99.90;;;;;;8205534;28;20196;-67
2023/07/23 18:20:44;;;;;;;13.10;3.40;;;24.80;99.90;;;;;;8203485;28;20382;-69
2023/07/23 18:24:48;;;;;;;7.73;3.43;;;24.60;99.90;;;;;;8202515;28;20220;-66
2023/07/23 18:28:49;;;;;;;18.30;3.90;;;24.40;99.90;;;;;;8204389;28;20184;-66
2023/07/23 18:32:53;;;;;;;9.67;3.30;;;24.20;99.90;;;;;;8200696;28;20212;-66
2023/07/23 18:36:54;;;;;;;14.07;4.10;;;24.00;99.90;;;;;;8220853;28;20189;-64
2023/07/23 18:40:56;;;;;;;7.90;3.43;;;23.80;99.90;;;;;;8206148;28;20192;-68
2023/07/23 18:44:57;;;;;;;10.57;3.40;;;23.70;99.90;;;;;;8207296;28;20300;-68
2023/07/23 18:48:58;;;;;;;10.53;3.70;;;23.60;99.90;;;;;;8208001;28;20264;-69
2023/07/23 18:52:59;;;;;;;6.73;3.63;;;23.50;99.90;;;;;;8205310;28;20192;-70
2023/07/23 18:57:00;;;;;;;5.70;3.10;;;23.40;99.90;;;;;;8223791;28;20188;-68
2023/07/23 19:01:01;;;;;;;5.57;3.13;;;23.30;99.90;;;;;;8201902;28;20184;-67
2023/07/23 19:05:01;;;;;;;4.27;3.00;;;22.90;99.90;;;;;;8217522;28;20216;-66
2023/07/23 19:09:02;;;;;;;5.07;3.40;;;22.70;99.90;;;;;;8206586;28;20191;-67
2023/07/23 19:13:04;;;;;;;4.03;3.13;;;22.50;99.90;;;;;;8221703;28;20232;-70
2023/07/23 19:17:05;;;;;;;5.17;3.13;;;22.30;99.90;;;;;;8214326;28;20224;-67
2023/07/23 19:21:09;;;;;;;4.83;3.37;;;22.10;99.90;;;;;;8204558;28;20235;-67
2023/07/23 19:25:13;;;;;;;3.50;2.67;;;21.90;99.90;;;;;;8203881;28;20185;-68
2023/07/23 19:29:14;;;;;;;4.73;2.97;;;21.80;99.90;;;;;;8204022;28;20192;-69
2023/07/23 19:33:15;;;;;;;5.10;2.93;;;21.70;99.90;;;;;;8219390;28;20192;-68
2023/07/23 19:37:15;;;;;;;4.50;2.67;;;21.60;99.90;;;;;;8207930;28;20188;-67
2023/07/23 19:41:17;;;;;;;5.57;3.13;;;21.50;99.90;;;;;;8205862;28;20220;-70
2023/07/23 19:45:18;;;;;;;3.97;2.63;;;21.40;99.90;;;;;;8203189;28;20185;-68
2023/07/23 19:49:19;;;;;;;3.50;2.80;;;21.30;99.90;;;;;;8221518;28;20203;-67
2023/07/23 19:53:20;;;;;;;3.30;2.57;;;21.30;99.90;;;;;;8201071;28;20258;-67
2023/07/23 19:57:21;;;;;;;4.20;2.80;;;21.30;99.90;;;;;;8211288;28;20216;-66
2023/07/23 20:01:22;;;;;;;3.17;2.60;;;21.20;99.90;;;;;;8202653;28;20240;-67
2023/07/23 20:05:23;;;;;;;3.27;2.67;;;21.20;99.90;;;;;;8205443;28;20305;-68
2023/07/23 20:09:24;;;;;;;3.83;2.87;;;21.10;99.90;;;;;;8205949;28;20177;-69
2023/07/23 20:13:25;;;;;;;3.27;2.90;;;21.00;99.90;;;;;;8205424;28;20188;-67
2023/07/23 20:17:26;;;;;;;4.57;2.93;;;20.90;99.90;;;;;;8204412;28;20218;-68
2023/07/23 20:21:28;;;;;;;4.40;2.87;;;20.80;99.90;;;;;;8208568;28;20239;-66
2023/07/23 20:25:34;;;;;;;6.10;3.00;;;20.80;99.90;;;;;;8205913;28;20196;-68
2023/07/23 20:29:38;;;;;;;3.67;2.90;;;20.80;99.90;;;;;;8201902;28;20284;-66
2023/07/23 20:33:40;;;;;;;3.80;2.90;;;20.80;99.90;;;;;;8215156;28;20192;-67
2023/07/23 20:37:41;;;;;;;3.93;2.40;;;20.80;99.90;;;;;;8203786;28;20203;-67
2023/07/23 20:41:42;;;;;;;3.27;2.77;;;20.80;99.90;;;;;;8199885;28;20223;-66
2023/07/23 20:45:43;;;;;;;4.63;2.73;;;20.90;99.90;;;;;;8200582;28;20189;-66
2023/07/23 20:49:45;;;;;;;3.90;2.60;;;20.90;99.90;;;;;;8199346;28;20268;-65
2023/07/23 20:53:55;;;;;;;4.63;2.50;;;20.90;99.90;;;;;;8199148;28;20260;-65
2023/07/23 20:57:56;;;;;;;2.27;2.07;;;21.00;99.90;;;;;;8203279;28;20205;-65
2023/07/23 21:01:57;;;;;;;2.87;2.27;;;21.00;99.90;;;;;;8197691;28;20217;-67